createdAt,value
2024-03-11T00:02:02.121Z,120.00
2024-03-11T00:04:28.692Z,110.63
2024-03-11T00:06:55.207Z,140.20
2024-03-11T00:09:29.488Z,119.03
2024-03-11T00:11:57.353Z,124.17
2024-03-11T00:14:27.461Z,133.13
2024-03-11T00:16:54.554Z,139.00
2024-03-11T00:19:21.032Z,131.17
2024-03-11T00:21:47.537Z,127.87
2024-03-11T00:24:15.789Z,124.50
2024-03-11T00:26:42.600Z,127.20
2024-03-11T00:29:09.295Z,139.50
2024-03-11T00:31:37.392Z,149.57
2024-03-11T00:34:04.725Z,133.20
2024-03-11T00:36:32.956Z,120.93
2024-03-11T00:38:59.498Z,135.67
2024-03-11T00:41:26.025Z,130.87
2024-03-11T00:43:52.592Z,123.63
2024-03-11T00:46:20.135Z,120.80
2024-03-11T00:48:46.726Z,131.10
2024-03-11T00:51:13.214Z,119.60
2024-03-11T00:53:39.978Z,121.07
2024-03-11T00:56:08.129Z,121.83
2024-03-11T00:58:37.348Z,118.13
2024-03-11T01:01:04.414Z,117.70
2024-03-11T01:03:31.037Z,108.73
2024-03-11T01:05:58.096Z,113.53
2024-03-11T01:08:25.323Z,127.43
2024-03-11T01:10:51.933Z,115.37
2024-03-11T01:13:20.017Z,127.37
2024-03-11T01:15:47.689Z,112.60
2024-03-11T01:18:15.428Z,123.37
2024-03-11T01:20:42.398Z,118.53
2024-03-11T01:23:09.596Z,110.17
2024-03-11T01:25:38.182Z,113.47
2024-03-11T01:28:05.443Z,113.23
2024-03-11T01:30:32.050Z,119.83
2024-03-11T01:32:58.684Z,118.17
2024-03-11T01:35:26.591Z,127.47
2024-03-11T01:37:53.184Z,113.60
2024-03-11T01:40:20.005Z,119.83
2024-03-11T01:42:46.537Z,116.50
2024-03-11T01:45:18.053Z,127.60
2024-03-11T01:47:45.113Z,125.43
2024-03-11T01:50:12.315Z,106.67
2024-03-11T01:52:44.613Z,112.23
2024-03-11T01:55:11.842Z,119.60
2024-03-11T01:57:38.924Z,114.33
2024-03-11T02:00:09.714Z,114.70
2024-03-11T02:02:36.842Z,128.67
2024-03-11T02:05:05.001Z,110.50
2024-03-11T02:07:31.970Z,124.43
2024-03-11T02:09:58.496Z,115.87
2024-03-11T02:12:25.555Z,141.07
2024-03-11T02:14:52.224Z,122.60
2024-03-11T02:17:19.022Z,120.30
2024-03-11T02:19:45.631Z,121.13
2024-03-11T02:22:13.196Z,112.23
2024-03-11T02:24:40.073Z,107.97
2024-03-11T02:27:06.729Z,130.60
2024-03-11T02:29:33.344Z,108.50
2024-03-11T02:31:59.926Z,118.73
2024-03-11T02:34:27.140Z,108.30
2024-03-11T02:36:53.655Z,109.70
2024-03-11T02:39:22.892Z,106.40
2024-03-11T02:41:51.452Z,115.90
2024-03-11T02:44:18.525Z,104.43
2024-03-11T02:46:45.054Z,120.37
2024-03-11T02:49:11.843Z,118.07
2024-03-11T02:51:40.031Z,116.47
2024-03-11T02:54:06.840Z,125.40
2024-03-11T02:56:33.324Z,108.73
2024-03-11T02:59:00.047Z,115.03
2024-03-11T03:01:27.190Z,121.20
2024-03-11T03:03:54.038Z,114.47
2024-03-11T03:06:20.581Z,115.40
2024-03-11T03:08:47.169Z,111.30
2024-03-11T03:11:13.857Z,112.33
2024-03-11T03:13:40.855Z,113.50
2024-03-11T03:16:08.185Z,113.07
2024-03-11T03:18:37.706Z,104.93
2024-03-11T03:21:04.343Z,108.00
2024-03-11T03:23:30.889Z,108.90
2024-03-11T03:25:57.405Z,110.03
2024-03-11T03:28:23.940Z,108.40
2024-03-11T03:30:54.187Z,121.77
2024-03-11T03:33:22.238Z,113.27
2024-03-11T03:35:49.017Z,105.23
2024-03-11T03:38:16.845Z,114.93
2024-03-11T03:40:43.955Z,101.23
2024-03-11T03:43:10.566Z,111.53
2024-03-11T03:45:37.117Z,123.97
2024-03-11T03:48:03.926Z,110.93
2024-03-11T03:50:31.354Z,101.00
2024-03-11T03:52:57.971Z,110.63
2024-03-11T03:55:25.344Z,99.63
2024-03-11T03:57:51.914Z,104.13
2024-03-11T04:00:18.824Z,111.47
2024-03-11T04:02:46.300Z,123.30
2024-03-11T04:05:13.015Z,111.13
2024-03-11T04:07:42.700Z,105.03
2024-03-11T04:10:18.520Z,103.77
2024-03-11T04:12:46.527Z,110.23
2024-03-11T04:15:13.670Z,105.20
2024-03-11T04:17:45.474Z,111.77
2024-03-11T04:20:13.246Z,106.33
2024-03-11T04:22:43.871Z,107.67
2024-03-11T04:25:15.445Z,117.07
2024-03-11T04:27:42.299Z,107.13
2024-03-11T04:30:09.168Z,112.30
2024-03-11T04:32:36.666Z,103.73
2024-03-11T04:35:06.841Z,110.70
2024-03-11T04:37:33.483Z,114.37
2024-03-11T04:40:00.055Z,125.83
2024-03-11T04:42:26.612Z,110.40
2024-03-11T04:44:53.217Z,103.40
2024-03-11T04:47:19.772Z,133.80
2024-03-11T04:49:46.288Z,110.13
2024-03-11T04:52:13.384Z,109.83
2024-03-11T04:54:39.894Z,113.03
2024-03-11T04:57:06.379Z,120.20
2024-03-11T04:59:33.052Z,116.53
2024-03-11T05:01:59.662Z,122.57
2024-03-11T05:04:26.188Z,109.97
2024-03-11T05:06:52.688Z,119.33
2024-03-11T05:09:19.247Z,126.83
2024-03-11T05:11:45.793Z,115.93
2024-03-11T05:14:14.455Z,112.20
2024-03-11T05:16:41.136Z,114.20
2024-03-11T05:19:07.967Z,123.97
2024-03-11T05:21:35.020Z,123.67
2024-03-11T05:24:01.595Z,114.17
2024-03-11T05:26:28.145Z,123.47
2024-03-11T05:28:54.657Z,152.87
2024-03-11T05:31:21.458Z,150.83
2024-03-11T05:33:48.007Z,145.50
2024-03-11T05:36:15.065Z,156.33
2024-03-11T05:38:41.596Z,120.70
2024-03-11T05:41:08.267Z,114.77
2024-03-11T05:43:34.791Z,112.40
2024-03-11T05:48:50.622Z,123.20
2024-03-11T05:51:17.143Z,111.53
2024-03-11T05:53:44.446Z,114.97
2024-03-11T05:56:12.331Z,110.13
2024-03-11T05:58:39.702Z,117.67
2024-03-11T06:01:06.316Z,110.77
2024-03-11T06:03:32.876Z,116.87
2024-03-11T06:05:59.871Z,120.17
2024-03-11T06:08:27.090Z,116.67
2024-03-11T06:10:55.416Z,112.53
2024-03-11T06:13:23.088Z,94.47
2024-03-11T06:15:49.684Z,115.16
2024-03-11T06:18:16.426Z,107.60
2024-03-11T06:20:43.549Z,119.00
2024-03-11T06:23:10.196Z,111.73
2024-03-11T06:25:36.730Z,109.23
2024-03-11T06:28:05.767Z,112.00
2024-03-11T06:30:32.296Z,107.47
2024-03-11T06:33:01.211Z,104.00
2024-03-11T06:35:27.976Z,115.17
2024-03-11T06:37:54.982Z,107.07
2024-03-11T06:40:24.676Z,106.27
2024-03-11T06:42:53.892Z,105.63
2024-03-11T06:45:21.506Z,98.87
2024-03-11T06:47:48.540Z,111.57
2024-03-11T06:50:15.580Z,103.33
2024-03-11T06:52:42.671Z,99.20
2024-03-11T06:55:11.970Z,115.27
2024-03-11T06:57:42.445Z,104.63
2024-03-11T07:00:18.641Z,106.43
2024-03-11T07:02:47.805Z,109.73
2024-03-11T07:05:15.114Z,111.23
2024-03-11T07:07:45.305Z,113.30
2024-03-11T07:10:12.477Z,106.20
2024-03-11T07:12:43.348Z,104.13
2024-03-11T07:15:12.988Z,114.70
2024-03-11T07:17:39.668Z,109.13
2024-03-11T07:20:09.554Z,108.93
2024-03-11T07:22:36.538Z,119.07
2024-03-11T07:25:03.828Z,121.83
2024-03-11T07:27:30.518Z,109.47
2024-03-11T07:29:58.253Z,128.43
2024-03-11T07:32:25.636Z,132.37
2024-03-11T07:34:52.196Z,127.40
2024-03-11T07:37:18.685Z,130.00
2024-03-11T07:39:45.826Z,130.33
2024-03-11T07:42:12.665Z,136.63
2024-03-11T07:44:39.321Z,112.77
2024-03-11T07:47:09.332Z,147.53
2024-03-11T07:49:36.827Z,131.97
2024-03-11T07:52:03.800Z,141.37
2024-03-11T07:54:30.802Z,146.27
2024-03-11T07:56:58.090Z,137.20
2024-03-11T07:59:24.848Z,144.07
2024-03-11T08:01:51.862Z,137.98
2024-03-11T08:04:18.390Z,136.23
2024-03-11T08:06:46.029Z,143.30
2024-03-11T08:09:15.179Z,142.33
2024-03-11T08:11:41.863Z,149.23
2024-03-11T08:14:09.476Z,153.67
2024-03-11T08:16:36.085Z,160.00
2024-03-11T08:19:02.678Z,172.27
2024-03-11T08:21:29.235Z,154.93
2024-03-11T08:23:55.809Z,166.50
2024-03-11T08:26:22.315Z,171.00
2024-03-11T08:28:48.907Z,163.57
2024-03-11T08:31:15.396Z,172.60
2024-03-11T08:33:41.874Z,165.73
2024-03-11T08:36:09.418Z,172.17
2024-03-11T08:38:39.436Z,169.00
2024-03-11T08:41:06.804Z,165.33
2024-03-11T08:43:33.523Z,175.73
2024-03-11T08:46:00.002Z,182.57
2024-03-11T08:48:28.064Z,169.80
2024-03-11T08:50:54.831Z,178.47
2024-03-11T08:53:21.444Z,174.73
2024-03-11T08:55:50.214Z,177.03
2024-03-11T08:58:17.385Z,164.37
2024-03-11T09:00:43.853Z,161.17
2024-03-11T09:03:11.057Z,173.07
2024-03-11T09:05:38.600Z,183.97
2024-03-11T09:08:05.387Z,163.47
2024-03-11T09:10:32.161Z,162.27
2024-03-11T09:12:59.933Z,170.67
2024-03-11T09:15:26.806Z,182.73
2024-03-11T09:17:53.784Z,177.67
2024-03-11T09:20:21.784Z,174.37
2024-03-11T09:22:50.612Z,168.37
2024-03-11T09:25:18.679Z,165.63
2024-03-11T09:27:55.647Z,174.13
2024-03-11T09:30:22.499Z,172.53
2024-03-11T09:32:50.906Z,161.90
2024-03-11T09:35:18.119Z,170.90
2024-03-11T09:37:48.445Z,186.80
2024-03-11T09:40:18.762Z,172.23
2024-03-11T09:42:49.069Z,184.07
2024-03-11T09:45:19.125Z,182.00
2024-03-11T09:47:53.721Z,179.47
2024-03-11T09:50:32.283Z,198.57
2024-03-11T09:52:59.709Z,176.13
2024-03-11T09:55:32.759Z,188.00
2024-03-11T09:58:13.522Z,186.50
2024-03-11T10:00:50.703Z,174.67
2024-03-11T10:03:23.129Z,183.83
2024-03-11T10:05:59.340Z,178.03
2024-03-11T10:08:26.899Z,173.00
2024-03-11T10:11:16.005Z,193.27
2024-03-11T10:13:43.386Z,170.37
2024-03-11T10:16:18.827Z,176.93
2024-03-11T10:18:56.481Z,173.73
2024-03-11T10:21:23.339Z,186.07
2024-03-11T10:23:50.084Z,178.50
2024-03-11T10:26:20.253Z,158.30
2024-03-11T10:28:49.115Z,179.43
2024-03-11T10:31:24.702Z,185.97
2024-03-11T10:33:55.455Z,198.50
2024-03-11T10:36:24.394Z,191.87
2024-03-11T10:38:51.304Z,192.70
2024-03-11T10:41:21.792Z,178.90
2024-03-11T10:43:52.827Z,186.43
2024-03-11T10:46:23.737Z,211.13
2024-03-11T10:48:52.380Z,193.77
2024-03-11T10:51:20.649Z,194.30
2024-03-11T10:53:47.590Z,174.60
2024-03-11T10:56:21.793Z,176.83
2024-03-11T10:58:51.093Z,175.43
2024-03-11T11:01:19.770Z,184.40
2024-03-11T11:03:53.886Z,182.23
2024-03-11T11:06:24.883Z,212.23
2024-03-11T11:08:51.477Z,189.30
2024-03-11T11:11:21.086Z,205.73
2024-03-11T11:13:50.968Z,210.93
2024-03-11T11:16:19.423Z,203.03
2024-03-11T11:18:48.313Z,213.27
2024-03-11T11:21:17.417Z,217.87
2024-03-11T11:23:44.636Z,230.27
2024-03-11T11:26:12.115Z,260.23
2024-03-11T11:28:41.900Z,265.63
2024-03-11T11:31:15.852Z,239.07
2024-03-11T11:33:50.501Z,236.13
2024-03-11T11:36:47.402Z,233.27
2024-03-11T11:39:15.731Z,239.83
2024-03-11T11:41:45.169Z,243.07
2024-03-11T11:44:11.729Z,245.80
2024-03-11T11:46:42.446Z,223.73
2024-03-11T11:49:18.822Z,220.97
2024-03-11T11:51:46.913Z,214.30
2024-03-11T11:54:35.896Z,227.70
2024-03-11T11:57:11.936Z,208.50
2024-03-11T11:59:39.103Z,198.07
2024-03-11T12:02:09.327Z,198.67
2024-03-11T12:04:35.866Z,161.33
2024-03-11T12:07:04.398Z,172.67
2024-03-11T12:09:35.377Z,181.97
2024-03-11T12:12:02.182Z,185.97
2024-03-11T12:14:32.511Z,166.83
2024-03-11T12:17:09.124Z,164.57
2024-03-11T12:19:39.482Z,166.97
2024-03-11T12:22:06.613Z,168.50
2024-03-11T12:24:33.277Z,163.53
2024-03-11T12:27:00.121Z,169.20
2024-03-11T12:29:26.934Z,163.10
2024-03-11T12:31:55.608Z,174.57
2024-03-11T12:34:25.254Z,152.83
2024-03-11T12:36:52.423Z,168.43
2024-03-11T12:39:29.174Z,197.27
2024-03-11T12:41:58.324Z,162.57
2024-03-11T12:44:25.974Z,139.13
2024-03-11T12:46:57.410Z,154.03
2024-03-11T12:49:24.903Z,138.33
2024-03-11T12:52:03.542Z,147.20
2024-03-11T12:54:30.360Z,161.40
2024-03-11T12:57:06.083Z,157.53
2024-03-11T12:59:33.422Z,156.20
2024-03-11T13:02:14.205Z,170.60
2024-03-11T13:04:40.837Z,163.27
2024-03-11T13:07:07.530Z,170.80
2024-03-11T13:09:34.282Z,163.13
2024-03-11T13:12:09.316Z,166.70
2024-03-11T13:14:37.571Z,151.47
2024-03-11T13:17:05.555Z,145.57
2024-03-11T13:19:32.790Z,139.03
2024-03-11T13:22:00.068Z,151.53
2024-03-11T13:24:32.475Z,144.07
2024-03-11T13:27:00.576Z,130.47
2024-03-11T13:29:27.083Z,130.83
2024-03-11T13:31:54.349Z,140.50
2024-03-11T13:34:23.212Z,129.33
2024-03-11T13:36:51.746Z,134.97
2024-03-11T13:39:19.275Z,131.70
2024-03-11T13:41:48.272Z,127.80
2024-03-11T13:44:15.691Z,130.10
2024-03-11T13:46:47.938Z,142.67
2024-03-11T13:49:14.536Z,139.47
2024-03-11T13:51:41.630Z,136.40
2024-03-11T13:54:08.272Z,137.13
2024-03-11T13:56:34.839Z,146.43
2024-03-11T13:59:01.890Z,137.83
2024-03-11T14:01:28.571Z,133.47
2024-03-11T14:03:55.212Z,136.47
2024-03-11T14:06:21.870Z,126.03
2024-03-11T14:08:49.173Z,111.00
2024-03-11T14:11:19.480Z,122.53
2024-03-11T14:13:47.379Z,118.33
2024-03-11T14:16:14.677Z,117.20
2024-03-11T14:18:41.442Z,122.47
2024-03-11T14:21:09.720Z,120.10
2024-03-11T14:23:37.797Z,128.80
2024-03-11T14:26:04.889Z,134.73
2024-03-11T14:28:32.772Z,127.70
2024-03-11T14:31:03.678Z,120.23
2024-03-11T14:33:30.979Z,118.57
2024-03-11T14:35:57.917Z,117.57
2024-03-11T14:38:44.457Z,116.90
2024-03-11T14:41:12.787Z,122.93
2024-03-11T14:43:47.405Z,125.40
2024-03-11T14:46:17.039Z,122.13
2024-03-11T14:48:48.986Z,118.67
2024-03-11T14:51:23.012Z,130.20
2024-03-11T14:53:51.011Z,116.40
2024-03-11T14:56:17.584Z,123.47
2024-03-11T14:58:45.509Z,109.07
2024-03-11T15:01:12.227Z,125.50
2024-03-11T15:03:38.978Z,119.27
2024-03-11T15:06:11.149Z,124.50
2024-03-11T15:08:42.413Z,127.47
2024-03-11T15:11:19.491Z,123.20
2024-03-11T15:13:46.365Z,116.67
2024-03-11T15:16:23.434Z,108.47
2024-03-11T15:18:54.858Z,106.70
2024-03-11T15:21:22.078Z,114.03
2024-03-11T15:23:50.273Z,117.93
2024-03-11T15:26:19.329Z,122.53
2024-03-11T15:28:45.886Z,121.57
2024-03-11T15:31:13.103Z,114.00
2024-03-11T15:33:40.355Z,112.30
2024-03-11T15:36:08.666Z,116.53
2024-03-11T15:38:35.587Z,109.43
2024-03-11T15:41:11.693Z,117.26
2024-03-11T15:43:41.218Z,105.97
2024-03-11T15:46:08.312Z,102.77
2024-03-11T15:48:35.894Z,124.43
2024-03-11T15:51:02.393Z,116.70
2024-03-11T15:53:28.885Z,121.17
2024-03-11T15:55:56.163Z,126.73
2024-03-11T15:58:25.689Z,127.00
2024-03-11T16:00:52.320Z,129.60
2024-03-11T16:03:20.515Z,124.63
2024-03-11T16:05:47.163Z,140.23
2024-03-11T16:08:20.044Z,130.27
2024-03-11T16:10:49.083Z,105.60
2024-03-11T16:13:16.283Z,105.00
2024-03-11T16:15:42.974Z,108.93
2024-03-11T16:18:10.626Z,110.70
2024-03-11T16:20:38.899Z,121.57
2024-03-11T16:23:06.261Z,105.17
2024-03-11T16:25:33.047Z,110.23
2024-03-11T16:28:00.290Z,103.83
2024-03-11T16:30:27.660Z,109.53
2024-03-11T16:32:54.741Z,111.57
2024-03-11T16:35:32.781Z,103.57
2024-03-11T16:38:00.223Z,103.90
2024-03-11T16:40:27.787Z,97.57
2024-03-11T16:43:14.993Z,106.90
2024-03-11T16:45:49.651Z,115.60
2024-03-11T16:48:18.045Z,105.00
2024-03-11T16:50:47.361Z,96.27
2024-03-11T16:53:15.220Z,92.57
2024-03-11T16:55:43.077Z,108.17
2024-03-11T16:58:13.602Z,112.20
2024-03-11T17:00:42.694Z,89.27
2024-03-11T17:03:10.586Z,99.23
2024-03-11T17:05:40.078Z,100.50
2024-03-11T17:08:10.168Z,96.73
2024-03-11T17:10:40.606Z,88.97
2024-03-11T17:13:08.999Z,107.03
2024-03-11T17:15:37.112Z,97.03
2024-03-11T17:18:04.497Z,105.93
2024-03-11T17:20:42.224Z,92.43
2024-03-11T17:23:10.893Z,95.13
2024-03-11T17:25:39.572Z,100.00
2024-03-11T17:28:08.804Z,118.67
2024-03-11T17:30:35.927Z,107.30
2024-03-11T17:33:15.495Z,117.77
2024-03-11T17:35:46.414Z,109.20
2024-03-11T17:38:13.714Z,100.40
2024-03-11T17:40:41.036Z,103.73
2024-03-11T17:43:09.351Z,106.27
2024-03-11T17:45:47.432Z,106.07
2024-03-11T17:48:18.368Z,90.53
2024-03-11T17:50:45.239Z,96.88
2024-03-11T17:53:15.012Z,89.77
2024-03-11T17:55:42.795Z,101.20
2024-03-11T17:58:12.104Z,107.27
2024-03-11T18:00:41.358Z,118.47
2024-03-11T18:03:11.389Z,115.60
2024-03-11T18:05:38.174Z,122.37
2024-03-11T18:08:07.724Z,122.27
2024-03-11T18:10:35.434Z,125.40
2024-03-11T18:13:03.887Z,125.83
2024-03-11T18:15:30.861Z,117.97
2024-03-11T18:17:58.549Z,114.97
2024-03-11T18:20:28.123Z,124.10
2024-03-11T18:22:55.817Z,118.40
2024-03-11T18:25:23.295Z,119.87
2024-03-11T18:27:53.621Z,117.23
2024-03-11T18:30:21.364Z,113.17
2024-03-11T18:32:49.173Z,105.27
2024-03-11T18:35:16.611Z,110.90
2024-03-11T18:37:43.191Z,106.37
2024-03-11T18:40:15.875Z,108.80
2024-03-11T18:42:43.707Z,106.07
2024-03-11T18:45:11.248Z,110.07
2024-03-11T18:47:38.215Z,100.97
2024-03-11T18:50:07.736Z,112.93
2024-03-11T18:52:44.459Z,100.43
2024-03-11T18:55:19.946Z,103.63
2024-03-11T18:57:47.312Z,95.70
2024-03-11T19:00:24.306Z,118.30
2024-03-11T19:02:54.154Z,109.17
2024-03-11T19:05:21.075Z,107.37
2024-03-11T19:07:48.184Z,119.23
2024-03-11T19:10:17.507Z,111.83
2024-03-11T19:12:48.013Z,110.90
2024-03-11T19:15:18.297Z,103.17
2024-03-11T19:17:44.962Z,100.77
2024-03-11T19:20:12.264Z,97.07
2024-03-11T19:22:39.959Z,121.87
2024-03-11T19:25:10.259Z,105.47
2024-03-11T19:27:37.866Z,97.23
2024-03-11T19:30:05.691Z,95.10
2024-03-11T19:32:34.020Z,88.20
2024-03-11T19:35:00.602Z,89.77
2024-03-11T19:37:59.130Z,93.57
2024-03-11T19:40:30.520Z,102.20
2024-03-11T19:43:20.729Z,97.00
2024-03-11T19:46:06.331Z,76.88
2024-03-11T19:49:02.247Z,77.28
2024-03-11T19:51:47.807Z,71.05
2024-03-11T19:54:35.850Z,97.60
2024-03-11T19:57:23.424Z,12.10
2024-03-11T20:00:07.299Z,8.29
2024-03-11T20:02:33.815Z,10.13
2024-03-11T20:05:07.376Z,12.67
2024-03-11T20:08:03.541Z,9.93
2024-03-11T20:10:49.164Z,12.57
2024-03-11T20:13:18.911Z,12.67
2024-03-11T20:16:06.247Z,14.27
2024-03-11T20:18:51.866Z,9.17
2024-03-11T20:21:30.922Z,12.67
2024-03-11T20:24:16.842Z,9.83
2024-03-11T20:26:53.134Z,13.53
2024-03-11T20:29:27.443Z,11.83
2024-03-11T20:31:59.508Z,10.87
2024-03-11T20:34:26.487Z,9.17
2024-03-11T20:36:53.470Z,14.57
2024-03-11T20:39:20.249Z,12.87
2024-03-11T20:41:47.023Z,9.60
2024-03-11T20:44:13.716Z,9.77
2024-03-11T20:46:40.211Z,10.10
2024-03-11T20:49:09.372Z,11.97
2024-03-11T20:51:40.719Z,8.17
2024-03-11T20:54:07.838Z,12.87
2024-03-11T20:56:34.320Z,11.83
2024-03-11T20:59:00.845Z,17.17
2024-03-11T21:01:29.581Z,10.20
2024-03-11T21:03:57.622Z,9.97
2024-03-11T21:06:24.705Z,14.23
2024-03-11T21:08:53.780Z,8.07
2024-03-11T21:11:20.936Z,11.97
2024-03-11T21:13:47.546Z,16.37
2024-03-11T21:16:15.366Z,10.40
2024-03-11T21:18:42.277Z,8.37
2024-03-11T21:21:21.524Z,15.43
2024-03-11T21:24:07.699Z,9.37
2024-03-11T21:27:01.653Z,16.77
2024-03-11T21:29:30.276Z,10.13
2024-03-11T21:31:56.815Z,8.83
2024-03-11T21:34:23.341Z,10.00
2024-03-11T21:36:50.030Z,10.20
2024-03-11T21:39:17.240Z,6.60
2024-03-11T21:41:44.288Z,9.63
2024-03-11T21:44:10.769Z,13.30
2024-03-11T21:46:41.796Z,8.57
2024-03-11T21:49:08.872Z,5.87
2024-03-11T21:51:35.562Z,10.60
2024-03-11T21:54:02.512Z,5.57
2024-03-11T21:56:29.029Z,6.50
2024-03-11T21:58:55.594Z,9.80
2024-03-11T22:01:22.180Z,5.30
2024-03-11T22:03:48.828Z,4.97
2024-03-11T22:06:15.459Z,7.40
2024-03-11T22:08:42.035Z,6.87
2024-03-11T22:11:08.860Z,4.97
2024-03-11T22:13:35.587Z,8.97
2024-03-11T22:16:02.686Z,9.43
2024-03-11T22:18:29.365Z,7.50
2024-03-11T22:20:57.788Z,7.03
2024-03-11T22:23:24.332Z,6.83
2024-03-11T22:25:50.962Z,8.03
2024-03-11T22:28:19.007Z,6.63
2024-03-11T22:30:45.664Z,11.27
2024-03-11T22:33:14.195Z,6.87
2024-03-11T22:35:40.741Z,7.30
2024-03-11T22:38:08.518Z,6.30
2024-03-11T22:40:35.108Z,9.17
2024-03-11T22:43:01.770Z,5.93
2024-03-11T22:45:28.426Z,5.93
2024-03-11T22:47:55.760Z,5.60
2024-03-11T22:50:22.749Z,8.40
2024-03-11T22:52:50.201Z,6.90
2024-03-11T22:55:16.870Z,7.13
2024-03-11T22:57:43.727Z,11.27
2024-03-11T23:00:30.608Z,18.77
2024-03-11T23:02:57.226Z,7.43
2024-03-11T23:05:24.242Z,9.83
2024-03-11T23:07:50.820Z,9.30
2024-03-11T23:10:18.257Z,5.60
2024-03-11T23:12:45.738Z,7.43
2024-03-11T23:15:15.442Z,8.50
2024-03-11T23:17:45.139Z,8.23
2024-03-11T23:20:15.293Z,5.30
2024-03-11T23:22:41.798Z,7.40
2024-03-11T23:25:08.895Z,6.63
2024-03-11T23:27:35.640Z,4.17
2024-03-11T23:32:28.556Z,7.87
2024-03-11T23:34:55.184Z,6.00
2024-03-11T23:37:22.758Z,9.10
2024-03-11T23:39:49.338Z,8.40
2024-03-11T23:42:16.616Z,7.90
2024-03-11T23:44:45.605Z,8.17
2024-03-11T23:47:13.275Z,9.37
2024-03-11T23:49:40.239Z,5.70
2024-03-11T23:52:07.045Z,7.95
2024-03-11T23:54:34.085Z,10.43
2024-03-11T23:57:01.525Z,7.20
2024-03-11T23:59:28.031Z,7.53
